createdAt,value
2022-11-28T00:02:21.217Z,28.64
2022-11-28T00:07:23.370Z,30.03
2022-11-28T00:12:26.299Z,29.77
2022-11-28T00:17:28.181Z,33.06
2022-11-28T00:22:30.065Z,31.02
2022-11-28T00:27:34.596Z,33.40
2022-11-28T00:32:37.032Z,31.62
2022-11-28T00:37:38.952Z,32.68
2022-11-28T00:42:40.855Z,32.90
2022-11-28T00:47:42.787Z,31.97
2022-11-28T00:52:44.750Z,32.72
2022-11-28T00:57:46.768Z,32.11
2022-11-28T01:02:48.864Z,32.38
2022-11-28T01:07:51.411Z,33.41
2022-11-28T01:12:53.295Z,33.16
2022-11-28T01:17:55.211Z,32.14
2022-11-28T01:22:57.127Z,32.49
2022-11-28T01:27:59.035Z,34.39
2022-11-28T01:33:00.937Z,32.64
2022-11-28T01:38:02.830Z,32.84
2022-11-28T01:43:04.730Z,32.46
2022-11-28T01:48:09.505Z,34.29
2022-11-28T01:53:12.516Z,32.73
2022-11-28T01:58:14.962Z,32.94
2022-11-28T02:03:29.916Z,33.89
2022-11-28T02:08:34.983Z,32.42
2022-11-28T02:13:55.484Z,33.62
2022-11-28T02:19:27.939Z,33.11
2022-11-28T02:24:45.083Z,31.93
2022-11-28T02:30:12.876Z,32.19
2022-11-28T02:35:14.774Z,32.55
2022-11-28T02:40:25.195Z,32.67
2022-11-28T02:45:58.835Z,32.39
2022-11-28T02:51:16.960Z,32.46
2022-11-28T02:56:19.053Z,33.59
2022-11-28T03:01:34.397Z,31.91
2022-11-28T03:06:58.406Z,32.65
2022-11-28T03:12:14.410Z,32.69
2022-11-28T03:17:52.276Z,32.77
2022-11-28T03:23:30.460Z,32.25
2022-11-28T03:28:40.682Z,33.38
2022-11-28T03:33:51.875Z,33.50
2022-11-28T03:39:08.510Z,32.37
2022-11-28T03:44:20.433Z,32.75
2022-11-28T03:49:46.222Z,32.96
2022-11-28T03:54:57.106Z,32.00
2022-11-28T04:00:04.164Z,32.69
2022-11-28T04:05:24.953Z,32.12
2022-11-28T04:10:51.056Z,31.77
2022-11-28T04:16:37.288Z,32.65
2022-11-28T04:22:04.087Z,32.79
2022-11-28T04:27:10.649Z,33.64
2022-11-28T04:32:15.264Z,33.60
2022-11-28T04:37:19.852Z,34.88
2022-11-28T04:42:26.463Z,34.09
2022-11-28T04:47:29.243Z,33.97
2022-11-28T04:52:41.757Z,34.71
2022-11-28T04:57:51.695Z,33.88
2022-11-28T05:02:56.908Z,34.76
2022-11-28T05:08:02.145Z,33.98
2022-11-28T05:13:04.575Z,33.78
2022-11-28T05:18:06.984Z,33.86
2022-11-28T05:23:09.318Z,33.17
2022-11-28T05:28:11.314Z,34.11
2022-11-28T05:33:17.644Z,34.30
2022-11-28T05:38:19.872Z,34.96
2022-11-28T05:43:21.945Z,35.79
2022-11-28T05:48:24.444Z,32.65
2022-11-28T05:53:26.652Z,30.39
2022-11-28T05:58:28.620Z,30.37
2022-11-28T06:03:30.570Z,31.46
2022-11-28T06:08:32.540Z,32.04
2022-11-28T06:13:34.530Z,31.32
2022-11-28T06:18:36.998Z,30.05
2022-11-28T06:23:40.800Z,31.54
2022-11-28T06:28:43.473Z,30.50
2022-11-28T06:33:46.004Z,29.23
2022-11-28T06:38:48.807Z,29.15
2022-11-28T06:43:50.964Z,29.30
2022-11-28T06:48:53.647Z,30.40
2022-11-28T06:53:55.757Z,30.75
2022-11-28T06:58:59.669Z,29.92
2022-11-28T07:04:02.176Z,30.42
2022-11-28T07:09:04.506Z,30.26
2022-11-28T07:14:06.531Z,30.98
2022-11-28T07:19:08.561Z,31.33
2022-11-28T07:24:10.454Z,31.06
2022-11-28T07:29:17.469Z,31.85
2022-11-28T07:34:19.398Z,31.12
2022-11-28T07:39:21.419Z,31.08
2022-11-28T07:44:23.307Z,31.42
2022-11-28T07:49:25.187Z,32.90
2022-11-28T07:54:27.120Z,31.85
2022-11-28T07:59:29.046Z,32.00
2022-11-28T08:04:31.074Z,32.68
2022-11-28T08:09:33.323Z,31.32
2022-11-28T08:14:35.279Z,33.35
2022-11-28T08:19:37.417Z,32.21
2022-11-28T08:24:39.365Z,31.56
2022-11-28T08:29:41.562Z,31.21
2022-11-28T08:34:43.654Z,30.64
2022-11-28T08:39:45.675Z,31.21
2022-11-28T08:44:47.664Z,31.30
2022-11-28T08:49:49.654Z,32.16
2022-11-28T08:54:51.868Z,32.09
2022-11-28T08:59:53.786Z,30.74
2022-11-28T09:04:55.709Z,30.97
2022-11-28T09:09:57.690Z,31.64
2022-11-28T09:14:59.613Z,31.13
2022-11-28T09:20:01.702Z,30.67
2022-11-28T09:25:04.076Z,30.75
2022-11-28T09:30:08.294Z,30.88
2022-11-28T09:35:10.369Z,33.09
2022-11-28T09:40:17.542Z,34.60
2022-11-28T09:45:23.339Z,33.24
2022-11-28T09:50:30.651Z,32.48
2022-11-28T09:56:02.224Z,32.19
2022-11-28T10:01:22.908Z,32.08
2022-11-28T10:06:45.280Z,30.29
2022-11-28T10:12:03.983Z,30.16
2022-11-28T10:17:21.116Z,30.46
2022-11-28T10:22:44.637Z,29.45
2022-11-28T10:27:47.962Z,29.66
2022-11-28T10:33:12.302Z,28.82
2022-11-28T10:38:16.811Z,28.92
2022-11-28T10:43:54.284Z,35.10
2022-11-28T10:49:01.394Z,36.22
2022-11-28T10:54:39.338Z,37.90
2022-11-28T11:00:03.339Z,38.37
2022-11-28T11:05:08.002Z,36.35
2022-11-28T11:10:17.305Z,36.31
2022-11-28T11:15:30.090Z,38.90
2022-11-28T11:20:39.647Z,39.16
2022-11-28T11:25:58.319Z,38.81
2022-11-28T11:31:07.083Z,33.79
2022-11-28T11:36:33.263Z,33.95
2022-11-28T11:41:35.279Z,33.28
2022-11-28T11:47:03.553Z,33.25
2022-11-28T11:52:21.107Z,33.78
2022-11-28T11:57:33.954Z,33.67
2022-11-28T12:02:38.562Z,33.82
2022-11-28T12:07:55.253Z,36.28
2022-11-28T12:12:57.403Z,36.67
2022-11-28T12:18:07.042Z,36.06
2022-11-28T12:23:46.562Z,35.22
2022-11-28T12:29:22.711Z,34.16
2022-11-28T12:34:30.570Z,36.69
2022-11-28T12:39:53.877Z,37.85
2022-11-28T12:45:15.996Z,37.13
2022-11-28T12:50:36.887Z,37.28
2022-11-28T12:56:07.888Z,35.38
2022-11-28T13:01:39.319Z,34.18
2022-11-28T13:06:48.790Z,34.67
2022-11-28T13:12:11.994Z,34.97
2022-11-28T13:17:42.828Z,35.37
2022-11-28T13:22:53.485Z,35.11
2022-11-28T13:28:04.236Z,37.02
2022-11-28T13:33:33.201Z,36.04
2022-11-28T13:39:11.364Z,35.95
2022-11-28T13:44:19.485Z,35.33
2022-11-28T13:49:27.499Z,35.76
2022-11-28T13:54:32.512Z,35.06
2022-11-28T13:59:35.766Z,35.62
2022-11-28T14:04:44.455Z,37.65
2022-11-28T14:10:16.905Z,37.99
2022-11-28T14:15:32.143Z,37.85
2022-11-28T14:20:51.764Z,38.33
2022-11-28T14:25:54.997Z,39.45
2022-11-28T14:31:26.183Z,39.25
2022-11-28T14:36:31.534Z,38.71
2022-11-28T14:42:05.348Z,39.86
2022-11-28T14:47:16.280Z,40.18
2022-11-28T14:52:40.910Z,39.39
2022-11-28T14:57:44.545Z,39.82
2022-11-28T15:02:52.760Z,39.34
2022-11-28T15:08:02.802Z,38.87
2022-11-28T15:13:35.078Z,37.87
2022-11-28T15:18:41.896Z,37.07
2022-11-28T15:23:44.693Z,39.05
2022-11-28T15:28:47.046Z,40.89
2022-11-28T15:33:50.521Z,44.00
2022-11-28T15:38:54.603Z,42.76
2022-11-28T15:43:57.706Z,44.33
2022-11-28T15:49:01.564Z,43.65
2022-11-28T15:54:30.134Z,43.00
2022-11-28T15:59:32.623Z,47.47
2022-11-28T16:04:34.923Z,49.54
2022-11-28T16:09:38.597Z,49.61
2022-11-28T16:14:44.934Z,45.57
2022-11-28T16:19:51.407Z,43.88
2022-11-28T16:25:00.129Z,45.20
2022-11-28T16:30:26.621Z,43.11
2022-11-28T16:35:39.026Z,42.17
2022-11-28T16:40:41.973Z,41.91
2022-11-28T16:45:44.049Z,42.91
2022-11-28T16:51:15.422Z,43.77
2022-11-28T16:56:29.344Z,43.50
2022-11-28T17:01:31.550Z,42.17
2022-11-28T17:06:37.746Z,42.80
2022-11-28T17:11:47.456Z,43.28
2022-11-28T17:16:49.490Z,43.50
2022-11-28T17:21:54.839Z,43.22
2022-11-28T17:26:56.838Z,41.89
2022-11-28T17:31:59.505Z,41.51
2022-11-28T17:37:02.961Z,41.29
2022-11-28T17:42:06.112Z,41.45
2022-11-28T17:47:08.117Z,41.43
2022-11-28T17:52:10.085Z,41.11
2022-11-28T17:57:12.146Z,41.44
2022-11-28T18:02:14.289Z,41.50
2022-11-28T18:07:16.308Z,42.76
2022-11-28T18:12:18.271Z,42.19
2022-11-28T18:17:20.325Z,43.12
2022-11-28T18:22:22.800Z,43.05
2022-11-28T18:27:24.917Z,43.21
2022-11-28T18:32:26.928Z,42.86
2022-11-28T18:37:30.268Z,43.52
2022-11-28T18:42:32.564Z,42.27
2022-11-28T18:47:35.781Z,42.42
2022-11-28T18:52:38.391Z,42.78
2022-11-28T18:57:41.426Z,42.54
2022-11-28T19:02:43.447Z,42.66
2022-11-28T19:07:45.680Z,42.78
2022-11-28T19:12:47.859Z,42.96
2022-11-28T19:17:49.815Z,42.46
2022-11-28T19:22:52.524Z,42.29
2022-11-28T19:27:54.793Z,41.83
2022-11-28T19:32:58.492Z,41.75
2022-11-28T19:38:00.555Z,41.55
2022-11-28T19:43:04.860Z,42.59
2022-11-28T19:48:07.672Z,42.61
2022-11-28T19:53:09.700Z,42.73
2022-11-28T19:58:12.370Z,42.33
2022-11-28T20:03:15.736Z,42.07
2022-11-28T20:08:17.772Z,41.37
2022-11-28T20:13:20.034Z,43.96
2022-11-28T20:18:22.233Z,44.59
2022-11-28T20:23:24.246Z,43.64
2022-11-28T20:28:26.532Z,44.61
2022-11-28T20:33:29.540Z,44.14
2022-11-28T20:38:31.612Z,44.60
2022-11-28T20:43:36.699Z,44.31
2022-11-28T20:48:39.772Z,43.63
2022-11-28T20:53:41.792Z,43.12
2022-11-28T20:58:44.356Z,42.97
2022-11-28T21:03:47.071Z,44.34
2022-11-28T21:08:49.093Z,43.74
2022-11-28T21:13:51.040Z,42.70
2022-11-28T21:18:53.401Z,42.73
2022-11-28T21:24:04.283Z,42.35
2022-11-28T21:29:07.065Z,41.89
2022-11-28T21:34:14.322Z,42.21
2022-11-28T21:39:20.040Z,42.17
2022-11-28T21:44:22.286Z,42.10
2022-11-28T21:49:24.542Z,41.81
2022-11-28T21:54:28.680Z,41.55
2022-11-28T21:59:31.875Z,41.46
2022-11-28T22:04:34.842Z,41.65
2022-11-28T22:09:36.974Z,41.94
2022-11-28T22:14:39.159Z,41.48
2022-11-28T22:19:41.604Z,41.60
2022-11-28T22:24:44.082Z,42.94
2022-11-28T22:29:46.451Z,42.76
2022-11-28T22:34:48.515Z,42.32
2022-11-28T22:39:51.775Z,42.80
2022-11-28T22:44:54.362Z,42.37
2022-11-28T22:49:56.805Z,44.08
2022-11-28T22:54:58.799Z,43.10
2022-11-28T23:00:00.768Z,42.25
2022-11-28T23:05:03.228Z,42.32
2022-11-28T23:10:05.742Z,42.02
2022-11-28T23:15:10.216Z,42.03
2022-11-28T23:20:12.733Z,42.19
2022-11-28T23:25:15.439Z,43.80
2022-11-28T23:30:18.298Z,43.32
2022-11-28T23:35:20.242Z,43.75
2022-11-28T23:40:22.379Z,43.05
2022-11-28T23:45:24.460Z,42.56
2022-11-28T23:50:27.238Z,43.50
2022-11-28T23:55:29.179Z,43.55
